Time;durP1;ratioP1;P1;durP2;ratioP2;P2;SDS_P1;SDS_P2;PMS_P1;PMS_P2;Temp;Humidity;BMP_temperature;BMP_pressure;BME280_temperature;BME280_humidity;BME280_pressure;Samples;Min_cycle;Max_cycle;Signal;HPM_P1;HPM_P2
2023/12/20 00:01:07;;;;;;;11.63;2.92;;;;;;;;;;6129926;23;20037;-83
2023/12/20 00:03:33;;;;;;;9.52;3.15;;;;;;;;;;6105668;23;20347;-83
2023/12/20 00:05:59;;;;;;;13.48;3.20;;;;;;;;;;6105905;23;20018;-83
2023/12/20 00:08:25;;;;;;;12.13;3.10;;;;;;;;;;6127481;23;20100;-83
2023/12/20 00:10:56;;;;;;;17.20;3.60;;;;;;;;;;6136009;23;20025;-82
2023/12/20 00:13:23;;;;;;;9.23;2.58;;;;;;;;;;6135619;23;20073;-82
2023/12/20 00:15:49;;;;;;;7.50;2.38;;;;;;;;;;6135256;23;20024;-83
2023/12/20 00:18:15;;;;;;;13.23;3.20;;;;;;;;;;6134701;23;20025;-83
2023/12/20 00:20:50;;;;;;;10.30;2.67;;;;;;;;;;6136897;23;20013;-83
2023/12/20 00:23:16;;;;;;;14.98;3.20;;;;;;;;;;6134849;23;20395;-83
2023/12/20 00:25:45;;;;;;;8.32;2.33;;;;;;;;;;6134807;23;20342;-83
2023/12/20 00:28:11;;;;;;;9.30;3.00;;;;;;;;;;6134083;23;20020;-83
2023/12/20 00:30:38;;;;;;;14.40;3.10;;;;;;;;;;6134430;23;20013;-83
2023/12/20 00:33:04;;;;;;;11.95;3.22;;;;;;;;;;6135345;23;20028;-83
2023/12/20 00:35:30;;;;;;;19.02;3.20;;;;;;;;;;6136765;23;20053;-83
2023/12/20 00:37:56;;;;;;;14.65;3.47;;;;;;;;;;6137439;23;20039;-83
2023/12/20 00:40:25;;;;;;;10.50;2.92;;;;;;;;;;6137188;23;20017;-83
2023/12/20 00:42:51;;;;;;;9.95;2.92;;;;;;;;;;6136894;23;20013;-83
2023/12/20 00:45:20;;;;;;;9.65;2.85;;;;;;;;;;6136523;23;20075;-83
2023/12/20 00:47:48;;;;;;;12.55;3.47;;;;;;;;;;6136528;23;20092;-83
2023/12/20 00:50:17;;;;;;;10.82;2.45;;;;;;;;;;6137630;23;20021;-83
2023/12/20 00:52:43;;;;;;;14.05;3.20;;;;;;;;;;6136997;23;20023;-83
2023/12/20 00:55:10;;;;;;;13.68;3.78;;;;;;;;;;6137732;23;20013;-83
2023/12/20 00:57:36;;;;;;;12.30;2.97;;;;;;;;;;6136488;23;20414;-83
2023/12/20 01:00:02;;;;;;;12.02;3.05;;;;;;;;;;6138636;23;20017;-83
2023/12/20 01:03:07;;;;;;;;;;;;;;;;;;;;;
2023/12/20 01:05:45;;;;;;;13.65;3.00;;;;;;;;;;6159554;23;20338;-83
2023/12/20 01:08:20;;;;;;;13.70;3.20;;;;;;;;;;6137670;23;20048;-83
2023/12/20 01:10:46;;;;;;;20.73;4.07;;;;;;;;;;6136512;23;20021;-83
2023/12/20 01:13:12;;;;;;;13.25;3.25;;;;;;;;;;6136156;23;20024;-83
2023/12/20 01:15:39;;;;;;;15.10;3.42;;;;;;;;;;6136052;23;20052;-83
2023/12/20 01:18:05;;;;;;;17.45;4.40;;;;;;;;;;6135588;23;20099;-83
2023/12/20 01:20:31;;;;;;;12.48;3.80;;;;;;;;;;6136324;23;20107;-83
2023/12/20 01:22:57;;;;;;;16.80;3.47;;;;;;;;;;6188014;23;20028;-83
2023/12/20 01:25:23;;;;;;;16.35;3.60;;;;;;;;;;6134792;23;20020;-83
2023/12/20 01:27:52;;;;;;;16.42;3.78;;;;;;;;;;6136175;23;20020;-83
2023/12/20 01:30:19;;;;;;;20.50;3.60;;;;;;;;;;6135928;23;20045;-83
2023/12/20 01:32:45;;;;;;;14.18;3.30;;;;;;;;;;6135579;23;20462;-82
2023/12/20 01:35:12;;;;;;;10.95;3.30;;;;;;;;;;6135845;23;20323;-83
2023/12/20 01:37:38;;;;;;;8.57;2.58;;;;;;;;;;6135372;23;20448;-83
2023/12/20 01:40:05;;;;;;;9.75;2.90;;;;;;;;;;6159479;23;20040;-83
2023/12/20 01:42:31;;;;;;;16.25;3.30;;;;;;;;;;6135387;23;20345;-83
2023/12/20 01:44:57;;;;;;;18.15;3.88;;;;;;;;;;6159444;23;20013;-83
2023/12/20 01:47:24;;;;;;;23.30;4.45;;;;;;;;;;6135629;23;20461;-83
2023/12/20 01:49:50;;;;;;;11.70;2.97;;;;;;;;;;6135287;23;20013;-83
2023/12/20 01:52:17;;;;;;;20.33;4.38;;;;;;;;;;6160007;23;20020;-83
2023/12/20 01:54:43;;;;;;;16.77;4.28;;;;;;;;;;6135658;23;20028;-83
2023/12/20 01:57:10;;;;;;;17.67;4.68;;;;;;;;;;6134640;23;20021;-83
2023/12/20 01:59:36;;;;;;;20.75;4.15;;;;;;;;;;6136192;23;20350;-83
2023/12/20 02:02:03;;;;;;;18.23;4.00;;;;;;;;;;6135673;23;20072;-83
2023/12/20 02:04:30;;;;;;;22.75;4.50;;;;;;;;;;6135635;23;20017;-83
2023/12/20 02:06:56;;;;;;;20.77;4.10;;;;;;;;;;6131518;23;20044;-83
2023/12/20 02:09:23;;;;;;;20.48;3.88;;;;;;;;;;6106206;23;20331;-83
2023/12/20 02:11:50;;;;;;;15.85;3.95;;;;;;;;;;6106497;23;20474;-83
2023/12/20 02:14:16;;;;;;;16.85;4.05;;;;;;;;;;6106392;23;20049;-83
2023/12/20 02:16:44;;;;;;;18.02;4.60;;;;;;;;;;6106014;23;20399;-83
2023/12/20 02:19:16;;;;;;;15.07;3.78;;;;;;;;;;6106162;23;20045;-83
2023/12/20 02:21:42;;;;;;;16.58;3.95;;;;;;;;;;6106358;23;20204;-83
2023/12/20 02:24:11;;;;;;;12.80;3.88;;;;;;;;;;6106396;23;20018;-83
2023/12/20 02:26:37;;;;;;;15.10;4.93;;;;;;;;;;6106217;23;20053;-83
2023/12/20 02:29:03;;;;;;;15.15;3.80;;;;;;;;;;6106848;23;20013;-83
2023/12/20 02:31:29;;;;;;;23.52;4.18;;;;;;;;;;6106320;23;20045;-83
2023/12/20 02:33:55;;;;;;;16.20;3.40;;;;;;;;;;6106180;23;20068;-83
2023/12/20 02:36:27;;;;;;;15.57;4.10;;;;;;;;;;6106368;23;20014;-83
2023/12/20 02:38:53;;;;;;;16.17;3.72;;;;;;;;;;6105594;23;20021;-83
2023/12/20 02:41:22;;;;;;;16.83;4.68;;;;;;;;;;6106565;23;20090;-83
2023/12/20 02:43:48;;;;;;;18.65;4.20;;;;;;;;;;6130359;23;20072;-83
2023/12/20 02:46:16;;;;;;;15.75;4.40;;;;;;;;;;6106097;23;20077;-83
2023/12/20 02:48:47;;;;;;;18.67;4.22;;;;;;;;;;6105199;23;20024;-82
2023/12/20 02:51:15;;;;;;;17.00;3.50;;;;;;;;;;6106629;23;20049;-83
2023/12/20 02:53:41;;;;;;;17.45;3.97;;;;;;;;;;6106068;23;20351;-83
2023/12/20 02:56:07;;;;;;;28.52;5.13;;;;;;;;;;6107644;23;20075;-83
2023/12/20 02:58:33;;;;;;;10.70;3.10;;;;;;;;;;6107095;23;20459;-83
2023/12/20 03:01:00;;;;;;;7.20;2.28;;;;;;;;;;6107844;23;20017;-82
2023/12/20 03:03:26;;;;;;;11.32;3.25;;;;;;;;;;6106766;23;20021;-83
2023/12/20 03:05:52;;;;;;;19.90;3.40;;;;;;;;;;6105287;23;20013;-83
2023/12/20 03:08:18;;;;;;;18.83;4.00;;;;;;;;;;6124784;23;20717;-83
2023/12/20 03:10:45;;;;;;;19.25;4.18;;;;;;;;;;6134984;23;20532;-83
2023/12/20 03:13:14;;;;;;;18.27;3.63;;;;;;;;;;6134400;23;20013;-83
2023/12/20 03:15:41;;;;;;;20.70;5.13;;;;;;;;;;6135008;23;20103;-83
2023/12/20 03:18:07;;;;;;;21.83;4.57;;;;;;;;;;6158261;23;20449;-83
2023/12/20 03:20:34;;;;;;;28.05;5.18;;;;;;;;;;6134801;23;20024;-83
2023/12/20 03:23:03;;;;;;;22.40;4.55;;;;;;;;;;6135842;23;20017;-83
2023/12/20 03:25:29;;;;;;;17.52;3.75;;;;;;;;;;6134890;23;20016;-83
2023/12/20 03:27:55;;;;;;;14.90;3.67;;;;;;;;;;6135606;23;20021;-83
2023/12/20 03:30:24;;;;;;;17.88;4.07;;;;;;;;;;6135017;23;20342;-83
2023/12/20 03:32:50;;;;;;;11.95;3.85;;;;;;;;;;6135532;23;20024;-83
2023/12/20 03:35:19;;;;;;;14.15;3.58;;;;;;;;;;6135184;23;20017;-83
2023/12/20 03:37:50;;;;;;;14.73;4.20;;;;;;;;;;6134697;23;20021;-83
2023/12/20 03:40:16;;;;;;;17.23;4.22;;;;;;;;;;6159127;23;20016;-83
2023/12/20 03:42:43;;;;;;;19.17;4.03;;;;;;;;;;6134961;23;20017;-83
2023/12/20 03:45:09;;;;;;;13.68;4.10;;;;;;;;;;6134812;23;20490;-83
2023/12/20 03:47:35;;;;;;;20.33;4.55;;;;;;;;;;6134618;23;20078;-84
2023/12/20 03:50:02;;;;;;;17.17;3.70;;;;;;;;;;6134653;23;20152;-83
2023/12/20 03:52:28;;;;;;;19.40;5.03;;;;;;;;;;6134737;23;20017;-83
2023/12/20 03:55:06;;;;;;;13.48;3.85;;;;;;;;;;6134624;23;20047;-83
2023/12/20 03:57:33;;;;;;;21.92;5.32;;;;;;;;;;6134144;23;20105;-83
2023/12/20 03:59:59;;;;;;;17.95;4.03;;;;;;;;;;6135205;23;20032;-83
2023/12/20 04:02:28;;;;;;;22.42;5.30;;;;;;;;;;6135084;23;20504;-83
2023/12/20 04:04:54;;;;;;;12.98;3.47;;;;;;;;;;6159430;23;20017;-83
2023/12/20 04:07:23;;;;;;;15.65;3.65;;;;;;;;;;6131394;23;20391;-84
2023/12/20 04:09:52;;;;;;;20.52;4.00;;;;;;;;;;6104788;23;20473;-83
2023/12/20 04:12:21;;;;;;;17.60;4.38;;;;;;;;;;6105614;23;20017;-83
2023/12/20 04:14:47;;;;;;;20.25;3.67;;;;;;;;;;6105269;23;20454;-83
2023/12/20 04:17:16;;;;;;;13.48;4.35;;;;;;;;;;6105593;23;20354;-83
2023/12/20 04:19:43;;;;;;;18.33;4.28;;;;;;;;;;6106666;23;20072;-82
2023/12/20 04:22:09;;;;;;;18.48;4.30;;;;;;;;;;6105308;23;20083;-82
2023/12/20 04:24:35;;;;;;;20.92;4.70;;;;;;;;;;6105692;23;20018;-82
2023/12/20 04:27:02;;;;;;;18.90;5.45;;;;;;;;;;6104916;23;20024;-82
2023/12/20 04:29:30;;;;;;;16.70;4.30;;;;;;;;;;6129573;23;20123;-83
2023/12/20 04:31:59;;;;;;;16.83;4.22;;;;;;;;;;6105104;23;20359;-83
2023/12/20 04:34:28;;;;;;;16.10;3.92;;;;;;;;;;6105731;23;20071;-83
2023/12/20 04:36:54;;;;;;;17.70;4.60;;;;;;;;;;6104969;23;20018;-83
2023/12/20 04:39:20;;;;;;;23.10;4.15;;;;;;;;;;6106151;23;20013;-82
2023/12/20 04:41:51;;;;;;;16.85;3.55;;;;;;;;;;6105748;23;20014;-82
2023/12/20 04:44:20;;;;;;;16.50;3.33;;;;;;;;;;6105366;23;20088;-83
2023/12/20 04:46:46;;;;;;;18.55;4.93;;;;;;;;;;6105770;23;20018;-83
2023/12/20 04:49:12;;;;;;;19.85;4.15;;;;;;;;;;6106218;23;20024;-83
2023/12/20 04:51:39;;;;;;;19.55;3.97;;;;;;;;;;6105795;23;20516;-82
2023/12/20 04:54:10;;;;;;;15.38;4.97;;;;;;;;;;6106433;23;20014;-83
2023/12/20 04:56:36;;;;;;;19.35;4.00;;;;;;;;;;6105182;23;20029;-82
2023/12/20 04:59:02;;;;;;;19.85;4.47;;;;;;;;;;6105880;23;20013;-82
2023/12/20 05:01:28;;;;;;;22.63;4.45;;;;;;;;;;6105035;23;20018;-83
2023/12/20 05:03:58;;;;;;;22.80;5.10;;;;;;;;;;6105462;23;20017;-83
2023/12/20 05:06:26;;;;;;;19.13;4.55;;;;;;;;;;6106367;23;20022;-83
2023/12/20 05:08:52;;;;;;;18.95;4.15;;;;;;;;;;6149656;23;20093;-82
2023/12/20 05:11:21;;;;;;;14.23;4.38;;;;;;;;;;6134979;23;20017;-82
2023/12/20 05:13:47;;;;;;;18.67;5.05;;;;;;;;;;6134906;23;20028;-83
2023/12/20 05:16:22;;;;;;;17.17;4.07;;;;;;;;;;6134970;23;20454;-83
2023/12/20 05:18:52;;;;;;;14.63;3.30;;;;;;;;;;6136072;23;20337;-82
2023/12/20 05:21:19;;;;;;;21.33;4.15;;;;;;;;;;6137586;23;20023;-82
2023/12/20 05:23:50;;;;;;;17.30;4.18;;;;;;;;;;6137753;23;20083;-82
2023/12/20 05:26:16;;;;;;;26.83;5.35;;;;;;;;;;6161728;23;20021;-83
2023/12/20 05:28:43;;;;;;;13.40;3.80;;;;;;;;;;6137833;23;20075;-82
2023/12/20 05:31:12;;;;;;;15.88;3.97;;;;;;;;;;6137832;23;20021;-82
2023/12/20 05:33:40;;;;;;;22.42;3.90;;;;;;;;;;6137601;23;20528;-82
2023/12/20 05:36:11;;;;;;;24.85;4.88;;;;;;;;;;6137361;23;20079;-82
2023/12/20 05:38:37;;;;;;;17.13;4.03;;;;;;;;;;6137721;23;20450;-82
2023/12/20 05:41:06;;;;;;;12.10;3.72;;;;;;;;;;6137816;23;20013;-82
2023/12/20 05:43:35;;;;;;;19.42;4.13;;;;;;;;;;6138908;23;20017;-83
2023/12/20 05:46:01;;;;;;;21.92;6.10;;;;;;;;;;6137621;23;20028;-82
2023/12/20 05:48:30;;;;;;;16.05;4.35;;;;;;;;;;6141311;23;20100;-82
2023/12/20 05:51:17;;;;;;;14.10;3.47;;;;;;;;;;6138044;23;20016;-82
2023/12/20 05:53:46;;;;;;;13.60;3.33;;;;;;;;;;6138022;23;20063;-82
2023/12/20 05:56:12;;;;;;;21.08;4.65;;;;;;;;;;6136887;23;20100;-82
2023/12/20 05:58:40;;;;;;;20.58;4.43;;;;;;;;;;6137341;23;20057;-83
2023/12/20 06:01:08;;;;;;;17.33;4.80;;;;;;;;;;6137445;23;20460;-82
2023/12/20 06:03:34;;;;;;;10.48;3.30;;;;;;;;;;6138096;23;20028;-82
2023/12/20 06:06:15;;;;;;;21.92;4.57;;;;;;;;;;6135870;23;20024;-83
2023/12/20 06:09:07;;;;;;;16.80;4.32;;;;;;;;;;6160466;23;20025;-83
2023/12/20 06:11:33;;;;;;;16.45;3.97;;;;;;;;;;6136097;23;20021;-85
2023/12/20 06:13:59;;;;;;;20.15;4.28;;;;;;;;;;6136391;23;20017;-84
2023/12/20 06:16:25;;;;;;;17.00;4.20;;;;;;;;;;6160153;23;20021;-83
2023/12/20 06:19:01;;;;;;;;;;;;;;;;;;;;;
2023/12/20 06:21:49;;;;;;;14.70;4.68;;;;;;;;;;6153421;23;20049;-83
2023/12/20 06:24:17;;;;;;;21.20;4.63;;;;;;;;;;6157045;23;20069;-82
2023/12/20 06:26:46;;;;;;;21.42;4.15;;;;;;;;;;6161101;23;20369;-82
2023/12/20 06:29:12;;;;;;;18.67;4.55;;;;;;;;;;6138048;23;20013;-82
2023/12/20 06:31:38;;;;;;;15.57;4.60;;;;;;;;;;6136918;23;20311;-81
2023/12/20 06:34:05;;;;;;;17.85;4.32;;;;;;;;;;6136191;23;20239;-82
2023/12/20 06:36:31;;;;;;;14.70;3.47;;;;;;;;;;6162109;23;20032;-81
2023/12/20 06:38:57;;;;;;;20.23;4.47;;;;;;;;;;6160828;23;20053;-83
2023/12/20 06:41:29;;;;;;;19.95;5.07;;;;;;;;;;6135164;23;20020;-81
2023/12/20 06:43:55;;;;;;;19.30;4.45;;;;;;;;;;6133997;23;20453;-81
2023/12/20 06:46:22;;;;;;;15.35;4.25;;;;;;;;;;6159165;23;20449;-81
2023/12/20 06:48:48;;;;;;;20.08;4.35;;;;;;;;;;6187174;23;20017;-81
2023/12/20 06:51:15;;;;;;;20.35;4.75;;;;;;;;;;6135465;23;20021;-81
2023/12/20 06:53:42;;;;;;;23.02;4.78;;;;;;;;;;6135992;23;20021;-81
2023/12/20 06:56:08;;;;;;;23.70;5.97;;;;;;;;;;6160938;23;20021;-81
2023/12/20 06:58:36;;;;;;;15.95;4.35;;;;;;;;;;6158968;23;20452;-80
2023/12/20 07:01:02;;;;;;;21.15;4.15;;;;;;;;;;6134975;23;20394;-81
2023/12/20 07:03:28;;;;;;;18.80;4.30;;;;;;;;;;6186062;23;20013;-81
2023/12/20 07:05:54;;;;;;;16.50;4.45;;;;;;;;;;6135612;23;20021;-81
2023/12/20 07:08:20;;;;;;;14.23;3.97;;;;;;;;;;6159578;23;20026;-81
2023/12/20 07:10:47;;;;;;;13.55;4.15;;;;;;;;;;6159812;23;20044;-81
2023/12/20 07:13:13;;;;;;;13.43;3.97;;;;;;;;;;6135889;23;20021;-81
2023/12/20 07:15:40;;;;;;;16.20;4.13;;;;;;;;;;6136259;23;20437;-81
2023/12/20 07:18:07;;;;;;;15.43;4.22;;;;;;;;;;6137045;23;20028;-81
2023/12/20 07:20:33;;;;;;;16.60;4.60;;;;;;;;;;6160230;23;20458;-81
2023/12/20 07:22:59;;;;;;;18.77;4.75;;;;;;;;;;6135495;23;20350;-81
2023/12/20 07:25:25;;;;;;;14.40;3.90;;;;;;;;;;6160597;23;20075;-81
2023/12/20 07:27:51;;;;;;;14.85;3.90;;;;;;;;;;6160289;23;20028;-81
2023/12/20 07:30:17;;;;;;;15.60;4.53;;;;;;;;;;6135897;23;20027;-81
2023/12/20 07:32:43;;;;;;;23.00;4.85;;;;;;;;;;6161623;23;20017;-81
2023/12/20 07:35:09;;;;;;;15.60;4.30;;;;;;;;;;6187155;23;20096;-81
2023/12/20 07:37:35;;;;;;;17.88;4.53;;;;;;;;;;6135879;23;20021;-81
2023/12/20 07:40:01;;;;;;;17.27;3.88;;;;;;;;;;6135686;23;20017;-81
2023/12/20 07:42:27;;;;;;;20.13;4.50;;;;;;;;;;6187101;23;20087;-81
2023/12/20 07:44:53;;;;;;;22.13;4.95;;;;;;;;;;6136300;23;20025;-81
2023/12/20 07:47:21;;;;;;;17.13;4.85;;;;;;;;;;6136064;23;20080;-81
2023/12/20 07:49:48;;;;;;;18.10;4.78;;;;;;;;;;6186698;23;20013;-81
2023/12/20 07:52:14;;;;;;;14.38;4.30;;;;;;;;;;6135646;23;20020;-81
2023/12/20 07:54:40;;;;;;;15.32;3.90;;;;;;;;;;6136152;23;20016;-81
2023/12/20 07:57:06;;;;;;;20.95;4.80;;;;;;;;;;6160704;23;20020;-81
2023/12/20 07:59:32;;;;;;;13.75;4.25;;;;;;;;;;6135874;23;20028;-81
2023/12/20 08:02:01;;;;;;;18.08;5.88;;;;;;;;;;6160951;23;20055;-81
2023/12/20 08:04:27;;;;;;;13.82;3.33;;;;;;;;;;6187743;23;20024;-81
2023/12/20 08:06:53;;;;;;;16.67;4.50;;;;;;;;;;6136925;23;20057;-81
2023/12/20 08:09:19;;;;;;;17.67;3.50;;;;;;;;;;6136360;23;20064;-81
2023/12/20 08:11:46;;;;;;;16.63;4.10;;;;;;;;;;6136394;23;20401;-81
2023/12/20 08:14:12;;;;;;;17.95;4.13;;;;;;;;;;6187166;23;20322;-81
2023/12/20 08:16:38;;;;;;;9.57;3.35;;;;;;;;;;6135596;23;20358;-81
2023/12/20 08:19:04;;;;;;;13.25;3.20;;;;;;;;;;6136366;23;20021;-81
2023/12/20 08:21:30;;;;;;;23.52;5.47;;;;;;;;;;6136898;23;20024;-81
2023/12/20 08:23:56;;;;;;;15.50;3.70;;;;;;;;;;6137047;23;20048;-81
2023/12/20 08:26:25;;;;;;;23.23;4.97;;;;;;;;;;6160531;23;20032;-83
2023/12/20 08:28:51;;;;;;;8.55;2.70;;;;;;;;;;6136084;23;20040;-83
2023/12/20 08:31:18;;;;;;;3.67;1.52;;;;;;;;;;6161848;23;20103;-82
2023/12/20 08:33:45;;;;;;;7.63;2.30;;;;;;;;;;6137336;23;20024;-82
2023/12/20 08:36:11;;;;;;;13.18;2.50;;;;;;;;;;6135953;23;20076;-83
2023/12/20 08:38:37;;;;;;;12.43;2.65;;;;;;;;;;6137312;23;20405;-82
2023/12/20 08:41:05;;;;;;;12.38;2.70;;;;;;;;;;6160856;23;20013;-83
2023/12/20 08:43:40;;;;;;;11.70;3.20;;;;;;;;;;6136880;23;20021;-83
2023/12/20 08:46:06;;;;;;;10.60;3.15;;;;;;;;;;6137135;23;20103;-83
2023/12/20 08:48:32;;;;;;;8.63;2.40;;;;;;;;;;6137024;23;20017;-82
2023/12/20 08:51:01;;;;;;;10.80;2.80;;;;;;;;;;6161705;23;20019;-82
2023/12/20 08:53:27;;;;;;;11.05;2.40;;;;;;;;;;6136696;23;20358;-82
2023/12/20 08:56:01;;;;;;;10.52;2.50;;;;;;;;;;6138171;23;20393;-83
2023/12/20 08:58:27;;;;;;;9.95;2.30;;;;;;;;;;6139748;23;20095;-82
2023/12/20 09:00:53;;;;;;;8.82;2.03;;;;;;;;;;6139397;23;20024;-82
2023/12/20 09:03:19;;;;;;;7.95;2.22;;;;;;;;;;6164610;23;20044;-82
2023/12/20 09:05:45;;;;;;;5.53;1.80;;;;;;;;;;6139232;23;20092;-82
2023/12/20 09:08:11;;;;;;;8.55;2.15;;;;;;;;;;6138326;23;20017;-81
2023/12/20 09:10:38;;;;;;;5.90;2.00;;;;;;;;;;6189649;23;20086;-81
2023/12/20 09:13:04;;;;;;;6.90;1.58;;;;;;;;;;6138095;23;20093;-81
2023/12/20 09:15:30;;;;;;;6.07;1.95;;;;;;;;;;6189801;23;20017;-81
2023/12/20 09:17:56;;;;;;;2.33;1.50;;;;;;;;;;6138607;23;20025;-82
2023/12/20 09:20:23;;;;;;;7.70;2.20;;;;;;;;;;6162789;23;20052;-82
2023/12/20 09:22:49;;;;;;;8.23;2.20;;;;;;;;;;6137782;23;20025;-81
2023/12/20 09:25:17;;;;;;;4.20;1.42;;;;;;;;;;6138062;23;20096;-82
2023/12/20 09:27:43;;;;;;;7.25;2.00;;;;;;;;;;6162139;23;20033;-82
2023/12/20 09:30:10;;;;;;;12.18;3.25;;;;;;;;;;6161457;23;20051;-82
2023/12/20 09:32:36;;;;;;;8.95;2.17;;;;;;;;;;6138385;23;20291;-82
2023/12/20 09:35:02;;;;;;;10.13;2.45;;;;;;;;;;6162738;23;20087;-82
2023/12/20 09:37:29;;;;;;;6.93;2.60;;;;;;;;;;6189318;23;20385;-82
2023/12/20 09:39:55;;;;;;;11.13;2.53;;;;;;;;;;6137542;23;20017;-81
2023/12/20 09:42:25;;;;;;;11.07;2.60;;;;;;;;;;6189622;23;20047;-82
2023/12/20 09:44:51;;;;;;;11.75;2.50;;;;;;;;;;6187839;23;20171;-82
2023/12/20 09:47:19;;;;;;;10.80;2.70;;;;;;;;;;6188372;23;20083;-81
2023/12/20 09:49:45;;;;;;;10.15;2.92;;;;;;;;;;6161486;23;20028;-81
2023/12/20 09:52:11;;;;;;;14.43;2.92;;;;;;;;;;6137077;23;20088;-81
2023/12/20 09:54:37;;;;;;;12.10;2.53;;;;;;;;;;6137301;23;20032;-81
2023/12/20 09:57:04;;;;;;;8.25;2.92;;;;;;;;;;6137765;23;20021;-80
2023/12/20 09:59:30;;;;;;;10.02;2.33;;;;;;;;;;6137807;23;20021;-81
2023/12/20 10:01:57;;;;;;;10.32;2.35;;;;;;;;;;6137304;23;20025;-81
2023/12/20 10:04:23;;;;;;;8.77;2.28;;;;;;;;;;6162627;23;20017;-81
2023/12/20 10:06:49;;;;;;;9.50;3.00;;;;;;;;;;6163429;23;20076;-81
2023/12/20 10:09:15;;;;;;;11.27;2.55;;;;;;;;;;6159248;23;20403;-81
2023/12/20 10:11:41;;;;;;;13.70;3.13;;;;;;;;;;6196904;23;20013;-81
2023/12/20 10:14:07;;;;;;;13.43;2.90;;;;;;;;;;6151027;23;20063;-80
2023/12/20 10:16:34;;;;;;;12.40;3.28;;;;;;;;;;6149072;23;20095;-80
2023/12/20 10:19:04;;;;;;;8.88;2.42;;;;;;;;;;6143851;23;20025;-80
2023/12/20 10:21:30;;;;;;;8.00;1.90;;;;;;;;;;6162648;23;20025;-80
2023/12/20 10:23:56;;;;;;;10.45;2.85;;;;;;;;;;6189263;23;20028;-81
2023/12/20 10:26:23;;;;;;;16.77;3.65;;;;;;;;;;6162378;23;20017;-80
2023/12/20 10:28:57;;;;;;;12.18;2.88;;;;;;;;;;6137196;23;20449;-80
2023/12/20 10:31:27;;;;;;;14.77;4.28;;;;;;;;;;6162442;23;20017;-81
2023/12/20 10:33:53;;;;;;;12.55;3.42;;;;;;;;;;6162067;23;20040;-80
2023/12/20 10:36:19;;;;;;;11.27;2.83;;;;;;;;;;6162762;23;20105;-80
2023/12/20 10:38:47;;;;;;;19.70;2.90;;;;;;;;;;6162368;23;20079;-81
2023/12/20 10:41:17;;;;;;;13.95;3.20;;;;;;;;;;6162198;23;20035;-80
2023/12/20 10:43:43;;;;;;;11.95;3.85;;;;;;;;;;6188939;23;20036;-81
2023/12/20 10:46:09;;;;;;;18.60;3.60;;;;;;;;;;6137480;23;20465;-81
2023/12/20 10:48:35;;;;;;;16.05;3.38;;;;;;;;;;6162542;23;20017;-82
2023/12/20 10:51:01;;;;;;;11.55;3.42;;;;;;;;;;6163601;23;20025;-81
2023/12/20 10:53:28;;;;;;;8.57;2.58;;;;;;;;;;6137814;23;20021;-81
2023/12/20 10:55:59;;;;;;;14.10;3.00;;;;;;;;;;6161888;23;20031;-79
2023/12/20 10:58:25;;;;;;;10.90;3.15;;;;;;;;;;6161731;23;20092;-80
2023/12/20 11:00:53;;;;;;;17.90;2.80;;;;;;;;;;6162311;23;20024;-80
2023/12/20 11:03:19;;;;;;;13.10;3.22;;;;;;;;;;6161758;23;20017;-80
2023/12/20 11:05:51;;;;;;;11.32;3.58;;;;;;;;;;6162670;23;20037;-80
2023/12/20 11:08:28;;;;;;;15.40;3.42;;;;;;;;;;6162155;23;20091;-81
2023/12/20 11:11:07;;;;;;;10.90;2.60;;;;;;;;;;6161421;23;20072;-80
2023/12/20 11:13:36;;;;;;;12.60;3.30;;;;;;;;;;6137700;23;20087;-80
2023/12/20 11:16:03;;;;;;;17.35;3.90;;;;;;;;;;6188590;23;20039;-80
2023/12/20 11:18:32;;;;;;;15.02;3.10;;;;;;;;;;6161071;23;20027;-80
2023/12/20 11:21:07;;;;;;;13.75;3.08;;;;;;;;;;6188310;23;20024;-80
2023/12/20 11:23:34;;;;;;;14.10;2.60;;;;;;;;;;6188389;23;20151;-80
2023/12/20 11:26:00;;;;;;;14.32;3.45;;;;;;;;;;6161478;23;20028;-81
2023/12/20 11:28:27;;;;;;;10.32;2.63;;;;;;;;;;6161837;23;20039;-80
2023/12/20 11:30:59;;;;;;;9.25;2.70;;;;;;;;;;6161877;23;20021;-82
2023/12/20 11:33:27;;;;;;;11.02;3.25;;;;;;;;;;6162432;23;20025;-81
2023/12/20 11:35:56;;;;;;;10.10;2.80;;;;;;;;;;6161999;23;20028;-81
2023/12/20 11:38:22;;;;;;;8.70;2.58;;;;;;;;;;6162823;23;20017;-82
2023/12/20 11:40:50;;;;;;;11.07;2.65;;;;;;;;;;6163789;23;20049;-81
2023/12/20 11:43:32;;;;;;;11.43;3.92;;;;;;;;;;6162835;23;20021;-82
2023/12/20 11:46:03;;;;;;;10.93;2.85;;;;;;;;;;6162323;23;20064;-81
2023/12/20 11:48:31;;;;;;;10.85;2.75;;;;;;;;;;6162194;23;20014;-82
2023/12/20 11:50:57;;;;;;;12.18;2.53;;;;;;;;;;6162927;23;20025;-81
2023/12/20 11:53:23;;;;;;;11.35;2.88;;;;;;;;;;6162259;23;20092;-81
2023/12/20 11:55:52;;;;;;;7.47;2.38;;;;;;;;;;6161497;23;20025;-81
2023/12/20 11:58:20;;;;;;;10.55;2.53;;;;;;;;;;6162827;23;20020;-82
2023/12/20 12:00:49;;;;;;;12.07;3.28;;;;;;;;;;6162772;23;20079;-82
2023/12/20 12:03:15;;;;;;;17.80;2.97;;;;;;;;;;6163052;23;20048;-82
2023/12/20 12:05:41;;;;;;;11.52;4.28;;;;;;;;;;6162795;23;20053;-82
2023/12/20 12:08:07;;;;;;;14.90;3.25;;;;;;;;;;6162759;23;20020;-82
2023/12/20 12:10:36;;;;;;;9.90;3.00;;;;;;;;;;6160802;23;20084;-83
2023/12/20 12:13:03;;;;;;;11.13;2.55;;;;;;;;;;6161761;23;20025;-83
2023/12/20 12:15:30;;;;;;;14.48;3.03;;;;;;;;;;6164306;23;20020;-82
2023/12/20 12:17:56;;;;;;;8.27;2.20;;;;;;;;;;6163050;23;20045;-82
2023/12/20 12:20:23;;;;;;;7.97;2.60;;;;;;;;;;6185377;23;20808;-84
2023/12/20 12:22:59;;;;;;;15.13;3.28;;;;;;;;;;6134377;23;20021;-81
2023/12/20 12:25:26;;;;;;;11.60;3.13;;;;;;;;;;6134708;23;20345;-82
2023/12/20 12:27:52;;;;;;;10.38;3.35;;;;;;;;;;6135625;23;20497;-82
2023/12/20 12:30:21;;;;;;;13.35;3.13;;;;;;;;;;6133695;23;20028;-83
2023/12/20 12:32:47;;;;;;;12.35;3.05;;;;;;;;;;6134590;23;20017;-83
2023/12/20 12:35:14;;;;;;;12.40;3.10;;;;;;;;;;6159375;23;20104;-82
2023/12/20 12:37:41;;;;;;;14.80;3.17;;;;;;;;;;6135791;23;20020;-83
2023/12/20 12:40:20;;;;;;;14.60;3.50;;;;;;;;;;6136675;23;20323;-82
2023/12/20 12:42:46;;;;;;;13.10;3.15;;;;;;;;;;6134207;23;20017;-82
2023/12/20 12:45:15;;;;;;;9.95;2.47;;;;;;;;;;6135515;23;20019;-82
2023/12/20 12:47:41;;;;;;;10.15;3.00;;;;;;;;;;6135609;23;20017;-82
2023/12/20 12:50:08;;;;;;;11.10;3.05;;;;;;;;;;6134532;23;20468;-82
2023/12/20 12:52:35;;;;;;;13.32;3.28;;;;;;;;;;6134236;23;20025;-82
2023/12/20 12:55:01;;;;;;;9.20;2.58;;;;;;;;;;6134605;23;20461;-82
2023/12/20 12:57:27;;;;;;;7.07;2.50;;;;;;;;;;6134550;23;20358;-82
2023/12/20 12:59:53;;;;;;;9.15;2.50;;;;;;;;;;6134514;23;20063;-82
2023/12/20 13:02:22;;;;;;;15.13;2.67;;;;;;;;;;6134738;23;20342;-82
2023/12/20 13:04:48;;;;;;;6.82;2.45;;;;;;;;;;6135134;23;20051;-82
2023/12/20 13:07:17;;;;;;;12.05;3.15;;;;;;;;;;6135456;23;20440;-82
2023/12/20 13:09:43;;;;;;;10.32;2.90;;;;;;;;;;6133331;23;20151;-82
2023/12/20 13:12:12;;;;;;;6.88;2.00;;;;;;;;;;6135212;23;20028;-82
2023/12/20 13:14:41;;;;;;;8.07;2.40;;;;;;;;;;6135157;23;20458;-82
2023/12/20 13:17:09;;;;;;;8.18;2.08;;;;;;;;;;6134617;23;20020;-82
2023/12/20 13:19:35;;;;;;;5.95;2.20;;;;;;;;;;6134495;23;20088;-82
2023/12/20 13:22:02;;;;;;;7.82;2.42;;;;;;;;;;6134683;23;20063;-82
2023/12/20 13:24:29;;;;;;;7.13;2.03;;;;;;;;;;6135058;23;20036;-82
2023/12/20 13:26:55;;;;;;;5.32;1.80;;;;;;;;;;6159347;23;20024;-82
2023/12/20 13:29:27;;;;;;;10.18;2.35;;;;;;;;;;6134968;23;20017;-82
2023/12/20 13:31:57;;;;;;;9.27;2.30;;;;;;;;;;6135585;23;20024;-82
2023/12/20 13:34:28;;;;;;;6.75;2.10;;;;;;;;;;6135746;23;20013;-82
2023/12/20 13:36:54;;;;;;;7.80;2.30;;;;;;;;;;6134935;23;20347;-83
2023/12/20 13:39:21;;;;;;;8.65;2.75;;;;;;;;;;6135126;23;20025;-82
2023/12/20 13:41:50;;;;;;;9.52;2.80;;;;;;;;;;6137089;23;20032;-82
2023/12/20 13:44:19;;;;;;;9.10;2.28;;;;;;;;;;6136819;23;20013;-84
2023/12/20 13:46:46;;;;;;;9.77;2.35;;;;;;;;;;6139509;23;20021;-82
2023/12/20 13:49:12;;;;;;;5.60;2.20;;;;;;;;;;6138274;23;20017;-82
2023/12/20 13:51:38;;;;;;;5.93;1.98;;;;;;;;;;6163461;23;20020;-82
2023/12/20 13:54:04;;;;;;;5.30;1.98;;;;;;;;;;6138890;23;20024;-82
2023/12/20 13:56:30;;;;;;;6.30;1.60;;;;;;;;;;6139437;23;20047;-82
2023/12/20 13:58:57;;;;;;;6.22;1.48;;;;;;;;;;6138481;23;20053;-82
2023/12/20 14:01:23;;;;;;;4.55;1.75;;;;;;;;;;6139276;23;20021;-82
2023/12/20 14:03:50;;;;;;;9.35;2.63;;;;;;;;;;6163259;23;20017;-82
2023/12/20 14:06:16;;;;;;;8.52;2.33;;;;;;;;;;6163152;23;20319;-82
2023/12/20 14:08:42;;;;;;;7.55;2.00;;;;;;;;;;6162977;23;20029;-82
2023/12/20 14:11:08;;;;;;;8.50;2.30;;;;;;;;;;6137828;23;20017;-82
2023/12/20 14:13:34;;;;;;;9.40;2.38;;;;;;;;;;6162074;23;20056;-82
2023/12/20 14:16:03;;;;;;;10.48;2.25;;;;;;;;;;6138210;23;20021;-82
2023/12/20 14:18:30;;;;;;;8.75;2.72;;;;;;;;;;6162144;23;20071;-83
2023/12/20 14:20:56;;;;;;;7.30;2.15;;;;;;;;;;6136849;23;20121;-83
2023/12/20 14:23:22;;;;;;;8.55;2.20;;;;;;;;;;6136668;23;20017;-83
2023/12/20 14:25:49;;;;;;;8.25;2.60;;;;;;;;;;6136568;23;20017;-83
2023/12/20 14:28:15;;;;;;;9.52;2.50;;;;;;;;;;6136331;23;20096;-83
2023/12/20 14:30:41;;;;;;;7.15;2.30;;;;;;;;;;6160455;23;20017;-84
2023/12/20 14:33:07;;;;;;;9.00;2.70;;;;;;;;;;6159727;23;20528;-83
2023/12/20 14:35:33;;;;;;;10.02;2.40;;;;;;;;;;6136422;23;20024;-83
2023/12/20 14:37:59;;;;;;;14.23;2.95;;;;;;;;;;6135230;23;20318;-84